KWLD/WLD METAR and TAF weather

Enter ICAO airport designator
Station Type Date Time Source
KWLD METAR 2020/07/15 05:54 UTC NOAA

KWLD 150554Z AUTO 15007KT 10SM -RA FEW110 28/23 A2985 RMK AO2 LTG DSNT N RAB54 SLP092 P0000 60000 T02780233 10333 20278 403440244 50010


Station Type Date Time Source
KWLD Decoded METAR 2020/07/15 05:54 UTC NOAA

STROTHER FIELD, KS, United States (KWLD) 37-10N 97-02W 350M
Jul 15, 2020 - 01:54 AM EDT / 2020.07.15 0554 UTC
Wind: from the SSE (150 degrees) at 8 MPH (7 KT):0
Visibility: 10 mile(s):0
Sky conditions: mostly clear
Weather: light rain; Lightning observed
Precipitation last hour: A trace
Temperature: 82.0 F (27.8 C)
Dew Point: 73.9 F (23.3 C)
Relative Humidity: 76%
Pressure (altimeter): 29.85 in. Hg (1010 hPa)
Pressure tendency: 0.03 inches (1.0 hPa) higher than three hours ago
ob: KWLD 150554Z AUTO 15007KT 10SM -RA FEW110 28/23 A2985 RMK AO2 LTG DSNT N RAB54 SLP092 P0000 60000 T02780233 10333 20278 403440244 50010
cycle: 6

Station Type Date Time Source
KWLD TAF UTC NOAA

Error!

Example: see airport list